createdAt,value
2018-08-30T04:13:02.785Z,93
2018-08-30T04:24:02.460Z,93
2018-08-30T04:29:31.214Z,93
2018-08-30T04:35:00.838Z,93
2018-08-30T04:40:29.719Z,94
2018-08-30T04:45:58.800Z,94
2018-08-30T04:51:33.662Z,94
2018-08-30T04:56:58.226Z,94
2018-08-30T05:02:33.067Z,94
2018-08-30T05:07:56.884Z,94
2018-08-30T05:13:31.760Z,94
2018-08-30T05:18:55.795Z,95
2018-08-30T05:24:25.457Z,95
2018-08-30T05:29:54.308Z,95
2018-08-30T05:35:24.024Z,95
2018-08-30T05:40:53.129Z,95
2018-08-30T05:46:21.648Z,95
2018-08-30T05:51:51.472Z,95
2018-08-30T05:57:20.305Z,95
2018-08-30T06:02:54.378Z,95
2018-08-30T06:08:18.940Z,95
2018-08-30T06:13:47.722Z,96
2018-08-30T06:19:16.518Z,96
2018-08-30T06:24:46.375Z,96
2018-08-30T06:30:20.150Z,96
2018-08-30T06:35:49.258Z,96
2018-08-30T06:41:13.815Z,96
2018-08-30T06:46:43.540Z,96
2018-08-30T06:52:18.354Z,96
2018-08-30T06:57:47.364Z,96
2018-08-30T07:03:10.948Z,96
2018-08-30T07:08:45.779Z,96
2018-08-30T07:14:11.109Z,97
2018-08-30T07:19:40.337Z,97
2018-08-30T07:25:09.156Z,97
2018-08-30T07:30:38.960Z,97
2018-08-30T07:36:14.316Z,97
2018-08-30T07:41:42.503Z,97
2018-08-30T07:47:41.168Z,97
2018-08-30T07:52:36.083Z,97
2018-08-30T07:58:04.869Z,97
2018-08-30T08:03:33.681Z,97
2018-08-30T08:09:02.462Z,97
2018-08-30T08:14:31.490Z,97
2018-08-30T08:20:00.388Z,97
2018-08-30T08:25:28.931Z,97
2018-08-30T08:30:57.599Z,97
2018-08-30T08:30:58.971Z,97
2018-08-30T08:36:27.369Z,97
2018-08-30T08:41:57.138Z,97
2018-08-30T08:47:26.174Z,97
2018-08-30T08:52:54.696Z,97
2018-08-30T08:58:24.553Z,97
2018-08-30T09:03:54.260Z,97
2018-08-30T09:09:23.400Z,97
2018-08-30T09:14:58.076Z,97
2018-08-30T09:20:22.560Z,97
2018-08-30T09:25:56.629Z,97
2018-08-30T09:31:25.143Z,97
2018-08-30T09:36:53.982Z,97
2018-08-30T09:42:22.636Z,97
2018-08-30T09:47:47.456Z,97
2018-08-30T09:53:17.255Z,98
2018-08-30T09:58:50.992Z,98
2018-08-30T10:04:19.746Z,98
2018-08-30T10:09:44.443Z,98
2018-08-30T10:15:14.295Z,98
2018-08-30T10:20:43.963Z,98
2018-08-30T10:26:13.659Z,98
2018-08-30T10:31:42.462Z,98
2018-08-30T10:37:12.397Z,98
2018-08-30T10:42:40.897Z,98
2018-08-30T10:48:09.640Z,98
2018-08-30T10:53:38.317Z,98
2018-08-30T10:59:08.304Z,99
2018-08-30T11:04:37.130Z,99
2018-08-30T11:10:06.533Z,99
2018-08-30T11:15:35.378Z,99
2018-08-30T11:21:04.893Z,99
2018-08-30T11:26:34.512Z,99
2018-08-30T11:32:03.439Z,99
2018-08-30T11:37:33.272Z,99
2018-08-30T11:43:01.573Z,99
2018-08-30T11:48:31.535Z,99
2018-08-30T11:54:01.444Z,99
2018-08-30T11:59:30.705Z,99
2018-08-30T12:04:59.868Z,98
2018-08-30T12:10:28.599Z,98
2018-08-30T12:15:58.019Z,98
2018-08-30T12:21:26.952Z,98
2018-08-30T12:26:55.405Z,98
2018-08-30T12:26:55.781Z,98
2018-08-30T12:32:24.109Z,98
2018-08-30T12:32:24.662Z,98
2018-08-30T12:43:21.756Z,98
2018-08-30T12:48:50.382Z,98
2018-08-30T12:54:20.238Z,98
2018-08-30T12:59:49.017Z,98
2018-08-30T13:05:18.498Z,98
2018-08-30T13:10:52.771Z,98
2018-08-30T13:16:21.411Z,97
2018-08-30T13:21:50.495Z,97
2018-08-30T13:27:13.954Z,97
2018-08-30T13:32:47.998Z,97
2018-08-30T13:38:11.891Z,97
2018-08-30T13:43:45.895Z,97
2018-08-30T13:49:09.412Z,97
2018-08-30T13:54:39.086Z,97
2018-08-30T14:00:08.709Z,97
2018-08-30T14:05:41.736Z,97
2018-08-30T14:11:05.587Z,97
2018-08-30T14:16:35.216Z,96
2018-08-30T14:22:05.502Z,96
2018-08-30T14:27:39.076Z,96
2018-08-30T14:33:04.375Z,96
2018-08-30T14:38:33.911Z,96
2018-08-30T14:44:07.850Z,96
2018-08-30T14:49:34.465Z,95
2018-08-30T15:00:30.076Z,94
2018-08-30T15:05:58.859Z,94
2018-08-30T15:11:28.809Z,93
2018-08-30T15:16:58.666Z,93
2018-08-30T15:22:33.663Z,93
2018-08-30T15:27:57.677Z,93
2018-08-30T15:33:26.681Z,93
2018-08-30T15:38:56.861Z,92
2018-08-30T15:44:26.829Z,92
2018-08-30T15:49:55.525Z,92
2018-08-30T15:55:25.470Z,92
2018-08-30T16:00:55.638Z,91
2018-08-30T16:06:25.613Z,91
2018-08-30T16:11:54.535Z,90
2018-08-30T16:17:24.446Z,90
2018-08-30T16:22:54.126Z,89
2018-08-30T16:28:22.947Z,89
2018-08-30T16:33:52.843Z,89
2018-08-30T16:39:27.731Z,89
2018-08-30T16:44:52.688Z,88
2018-08-30T16:50:22.034Z,88
2018-08-30T16:55:56.318Z,88
2018-08-30T17:01:26.393Z,88
2018-08-30T17:06:49.914Z,88
2018-08-30T17:12:23.732Z,88
2018-08-30T17:23:21.411Z,87
2018-08-30T17:28:50.089Z,87
2018-08-30T17:34:13.833Z,87
2018-08-30T17:39:42.558Z,86
2018-08-30T17:45:11.880Z,86
2018-08-30T17:50:40.446Z,86
2018-08-30T17:56:09.911Z,86
2018-08-30T18:01:44.569Z,86
2018-08-30T18:07:08.284Z,86
2018-08-30T18:12:37.130Z,86
2018-08-30T18:18:11.164Z,86
2018-08-30T18:23:35.407Z,86
2018-08-30T18:29:05.065Z,86
2018-08-30T18:34:34.986Z,85
2018-08-30T18:40:03.393Z,85
2018-08-30T18:45:37.143Z,85
2018-08-30T18:51:01.740Z,85
2018-08-30T18:56:30.482Z,85
2018-08-30T19:02:04.418Z,84
2018-08-30T19:07:33.712Z,84
2018-08-30T19:12:58.292Z,84
2018-08-30T19:18:28.179Z,84
2018-08-30T19:18:32.254Z,84
2018-08-30T19:23:56.573Z,84
2018-08-30T19:29:26.177Z,84
2018-08-30T19:35:00.852Z,84
2018-08-30T19:40:25.417Z,84
2018-08-30T19:45:55.038Z,84
2018-08-30T19:51:23.755Z,84
2018-08-30T19:56:53.265Z,84
2018-08-30T20:02:22.177Z,83
2018-08-30T20:07:50.676Z,84
2018-08-30T20:13:19.092Z,84
2018-08-30T20:18:53.835Z,84
2018-08-30T20:24:23.356Z,84
2018-08-30T20:29:46.947Z,84
2018-08-30T20:35:16.603Z,84
2018-08-30T20:40:46.261Z,84
2018-08-30T20:46:16.261Z,84
2018-08-30T20:51:45.392Z,84
2018-08-30T20:51:45.963Z,84
2018-08-30T20:57:13.993Z,84
2018-08-30T21:02:47.729Z,84
2018-08-30T21:08:13.633Z,84
2018-08-30T21:13:46.733Z,84
2018-08-30T21:19:10.311Z,84
2018-08-30T21:24:39.864Z,84
2018-08-30T21:30:13.680Z,84
2018-08-30T21:35:37.004Z,85
2018-08-30T21:41:05.820Z,85
2018-08-30T21:46:35.164Z,85
2018-08-30T21:52:03.669Z,85
2018-08-30T21:57:33.436Z,85
2018-08-30T22:03:01.735Z,85
2018-08-30T22:08:30.552Z,85
2018-08-30T22:13:58.769Z,85
2018-08-30T22:19:27.296Z,85
2018-08-30T22:24:56.060Z,85
2018-08-30T22:30:25.672Z,85
2018-08-30T22:35:54.881Z,85
2018-08-30T22:41:29.347Z,85
2018-08-30T22:46:53.242Z,85
2018-08-30T22:52:21.379Z,85
2018-08-30T22:57:50.975Z,85
2018-08-30T23:03:19.367Z,85
2018-08-30T23:08:48.115Z,85
2018-08-30T23:14:16.609Z,85
2018-08-30T23:19:44.800Z,86
2018-08-30T23:25:19.375Z,86
2018-08-30T23:30:47.749Z,86
2018-08-30T23:36:11.218Z,86
2018-08-30T23:41:40.659Z,86
2018-08-30T23:41:41.956Z,86
2018-08-30T23:47:14.430Z,86
2018-08-30T23:52:38.852Z,86
2018-08-30T23:58:07.076Z,86
